sensor_id;sensor_type;location;lat;lon;timestamp;P1;durP1;ratioP1;P2;durP2;ratioP2
6517;SDS011;3292;48.944;9.240;2023-09-18T00:01:54;4.23;;;3.53;;
6517;SDS011;3292;48.944;9.240;2023-09-18T00:04:21;3.50;;;3.20;;
6517;SDS011;3292;48.944;9.240;2023-09-18T00:06:48;3.63;;;3.33;;
6517;SDS011;3292;48.944;9.240;2023-09-18T00:09:15;3.70;;;3.40;;
6517;SDS011;3292;48.944;9.240;2023-09-18T00:11:41;4.40;;;3.77;;
6517;SDS011;3292;48.944;9.240;2023-09-18T00:14:10;3.87;;;3.47;;
6517;SDS011;3292;48.944;9.240;2023-09-18T00:16:37;3.63;;;3.33;;
6517;SDS011;3292;48.944;9.240;2023-09-18T00:19:04;4.10;;;3.30;;
6517;SDS011;3292;48.944;9.240;2023-09-18T00:21:31;4.27;;;3.50;;
6517;SDS011;3292;48.944;9.240;2023-09-18T00:23:58;4.00;;;3.60;;
6517;SDS011;3292;48.944;9.240;2023-09-18T00:26:25;4.10;;;3.80;;
6517;SDS011;3292;48.944;9.240;2023-09-18T00:28:52;4.03;;;3.57;;
6517;SDS011;3292;48.944;9.240;2023-09-18T00:31:20;5.53;;;4.00;;
6517;SDS011;3292;48.944;9.240;2023-09-18T00:33:47;5.90;;;4.07;;
6517;SDS011;3292;48.944;9.240;2023-09-18T00:36:14;3.90;;;3.50;;
6517;SDS011;3292;48.944;9.240;2023-09-18T00:38:41;4.27;;;3.87;;
6517;SDS011;3292;48.944;9.240;2023-09-18T00:41:08;4.33;;;3.70;;
6517;SDS011;3292;48.944;9.240;2023-09-18T00:43:35;4.50;;;4.00;;
6517;SDS011;3292;48.944;9.240;2023-09-18T00:46:02;4.27;;;3.90;;
6517;SDS011;3292;48.944;9.240;2023-09-18T00:48:31;4.10;;;3.70;;
6517;SDS011;3292;48.944;9.240;2023-09-18T00:50:57;4.73;;;4.23;;
6517;SDS011;3292;48.944;9.240;2023-09-18T00:53:24;4.17;;;3.77;;
6517;SDS011;3292;48.944;9.240;2023-09-18T00:55:53;5.10;;;3.80;;
6517;SDS011;3292;48.944;9.240;2023-09-18T00:58:21;4.17;;;3.87;;
6517;SDS011;3292;48.944;9.240;2023-09-18T01:00:48;5.93;;;4.20;;
6517;SDS011;3292;48.944;9.240;2023-09-18T01:03:16;3.97;;;3.53;;
6517;SDS011;3292;48.944;9.240;2023-09-18T01:05:45;4.00;;;3.60;;
6517;SDS011;3292;48.944;9.240;2023-09-18T01:08:12;4.33;;;3.90;;
6517;SDS011;3292;48.944;9.240;2023-09-18T01:10:40;4.67;;;3.60;;
6517;SDS011;3292;48.944;9.240;2023-09-18T01:13:15;4.13;;;3.60;;
6517;SDS011;3292;48.944;9.240;2023-09-18T01:15:48;4.10;;;3.80;;
6517;SDS011;3292;48.944;9.240;2023-09-18T01:18:20;4.37;;;3.97;;
6517;SDS011;3292;48.944;9.240;2023-09-18T01:20:48;4.77;;;3.73;;
6517;SDS011;3292;48.944;9.240;2023-09-18T01:23:16;3.87;;;3.57;;
6517;SDS011;3292;48.944;9.240;2023-09-18T01:25:43;3.60;;;3.30;;
6517;SDS011;3292;48.944;9.240;2023-09-18T01:28:10;3.80;;;3.50;;
6517;SDS011;3292;48.944;9.240;2023-09-18T01:30:37;3.77;;;3.30;;
6517;SDS011;3292;48.944;9.240;2023-09-18T01:33:04;4.07;;;3.47;;
6517;SDS011;3292;48.944;9.240;2023-09-18T01:35:31;3.90;;;3.50;;
6517;SDS011;3292;48.944;9.240;2023-09-18T01:37:59;3.77;;;3.47;;
6517;SDS011;3292;48.944;9.240;2023-09-18T01:40:29;4.40;;;4.00;;
6517;SDS011;3292;48.944;9.240;2023-09-18T01:42:57;3.97;;;3.60;;
6517;SDS011;3292;48.944;9.240;2023-09-18T01:45:24;4.00;;;3.70;;
6517;SDS011;3292;48.944;9.240;2023-09-18T01:47:51;4.30;;;3.90;;
6517;SDS011;3292;48.944;9.240;2023-09-18T01:50:18;3.70;;;3.40;;
6517;SDS011;3292;48.944;9.240;2023-09-18T01:52:45;3.77;;;3.37;;
6517;SDS011;3292;48.944;9.240;2023-09-18T01:55:12;3.90;;;3.60;;
6517;SDS011;3292;48.944;9.240;2023-09-18T01:57:40;3.70;;;3.40;;
6517;SDS011;3292;48.944;9.240;2023-09-18T02:00:07;5.57;;;3.87;;
6517;SDS011;3292;48.944;9.240;2023-09-18T02:02:35;5.23;;;3.80;;
6517;SDS011;3292;48.944;9.240;2023-09-18T02:05:02;4.43;;;3.53;;
6517;SDS011;3292;48.944;9.240;2023-09-18T02:07:29;5.00;;;3.33;;
6517;SDS011;3292;48.944;9.240;2023-09-18T02:09:56;4.30;;;3.90;;
6517;SDS011;3292;48.944;9.240;2023-09-18T02:12:23;4.43;;;3.77;;
6517;SDS011;3292;48.944;9.240;2023-09-18T02:14:51;5.83;;;3.90;;
6517;SDS011;3292;48.944;9.240;2023-09-18T02:17:18;3.90;;;3.60;;
6517;SDS011;3292;48.944;9.240;2023-09-18T02:19:45;4.40;;;4.00;;
6517;SDS011;3292;48.944;9.240;2023-09-18T02:22:12;3.90;;;3.60;;
6517;SDS011;3292;48.944;9.240;2023-09-18T02:24:39;5.27;;;3.83;;
6517;SDS011;3292;48.944;9.240;2023-09-18T02:27:06;5.03;;;4.07;;
6517;SDS011;3292;48.944;9.240;2023-09-18T02:29:33;3.77;;;3.47;;
6517;SDS011;3292;48.944;9.240;2023-09-18T02:32:01;4.00;;;3.60;;
6517;SDS011;3292;48.944;9.240;2023-09-18T02:34:28;5.20;;;3.70;;
6517;SDS011;3292;48.944;9.240;2023-09-18T02:36:55;5.43;;;3.87;;
6517;SDS011;3292;48.944;9.240;2023-09-18T02:39:22;4.17;;;3.53;;
6517;SDS011;3292;48.944;9.240;2023-09-18T02:41:48;5.27;;;3.90;;
6517;SDS011;3292;48.944;9.240;2023-09-18T02:44:15;4.90;;;4.13;;
6517;SDS011;3292;48.944;9.240;2023-09-18T02:46:42;5.90;;;4.77;;
6517;SDS011;3292;48.944;9.240;2023-09-18T02:49:10;5.10;;;4.37;;
6517;SDS011;3292;48.944;9.240;2023-09-18T02:51:37;6.77;;;4.40;;
6517;SDS011;3292;48.944;9.240;2023-09-18T02:54:04;5.47;;;4.83;;
6517;SDS011;3292;48.944;9.240;2023-09-18T02:56:31;5.10;;;4.53;;
6517;SDS011;3292;48.944;9.240;2023-09-18T02:58:58;5.83;;;4.60;;
6517;SDS011;3292;48.944;9.240;2023-09-18T03:01:24;5.23;;;4.47;;
6517;SDS011;3292;48.944;9.240;2023-09-18T03:03:51;5.30;;;4.80;;
6517;SDS011;3292;48.944;9.240;2023-09-18T03:06:19;5.53;;;4.03;;
6517;SDS011;3292;48.944;9.240;2023-09-18T03:08:46;4.93;;;4.50;;
6517;SDS011;3292;48.944;9.240;2023-09-18T03:11:13;6.77;;;5.07;;
6517;SDS011;3292;48.944;9.240;2023-09-18T03:13:44;5.60;;;4.60;;
6517;SDS011;3292;48.944;9.240;2023-09-18T03:16:12;4.57;;;4.17;;
6517;SDS011;3292;48.944;9.240;2023-09-18T03:18:39;7.23;;;4.53;;
6517;SDS011;3292;48.944;9.240;2023-09-18T03:21:06;6.03;;;4.50;;
6517;SDS011;3292;48.944;9.240;2023-09-18T03:23:34;4.80;;;4.40;;
6517;SDS011;3292;48.944;9.240;2023-09-18T03:26:01;5.33;;;4.73;;
6517;SDS011;3292;48.944;9.240;2023-09-18T03:28:28;6.63;;;4.50;;
6517;SDS011;3292;48.944;9.240;2023-09-18T03:30:55;4.40;;;3.80;;
6517;SDS011;3292;48.944;9.240;2023-09-18T03:33:23;4.90;;;4.43;;
6517;SDS011;3292;48.944;9.240;2023-09-18T03:35:51;6.43;;;4.83;;
6517;SDS011;3292;48.944;9.240;2023-09-18T03:38:19;6.30;;;4.47;;
6517;SDS011;3292;48.944;9.240;2023-09-18T03:40:48;4.87;;;4.40;;
6517;SDS011;3292;48.944;9.240;2023-09-18T03:43:15;4.60;;;4.20;;
6517;SDS011;3292;48.944;9.240;2023-09-18T03:45:42;4.50;;;4.10;;
6517;SDS011;3292;48.944;9.240;2023-09-18T03:48:09;5.83;;;4.40;;
6517;SDS011;3292;48.944;9.240;2023-09-18T03:50:36;4.63;;;4.10;;
6517;SDS011;3292;48.944;9.240;2023-09-18T03:53:03;5.57;;;4.37;;
6517;SDS011;3292;48.944;9.240;2023-09-18T03:55:30;4.97;;;4.27;;
6517;SDS011;3292;48.944;9.240;2023-09-18T03:57:58;6.20;;;4.53;;
6517;SDS011;3292;48.944;9.240;2023-09-18T04:00:25;5.67;;;4.17;;
6517;SDS011;3292;48.944;9.240;2023-09-18T04:02:52;4.83;;;4.10;;
6517;SDS011;3292;48.944;9.240;2023-09-18T04:05:19;5.77;;;4.50;;
6517;SDS011;3292;48.944;9.240;2023-09-18T04:07:45;6.30;;;4.30;;
6517;SDS011;3292;48.944;9.240;2023-09-18T04:10:12;7.93;;;4.20;;
6517;SDS011;3292;48.944;9.240;2023-09-18T04:12:44;7.37;;;4.43;;
6517;SDS011;3292;48.944;9.240;2023-09-18T04:15:14;5.73;;;4.57;;
6517;SDS011;3292;48.944;9.240;2023-09-18T04:17:42;7.47;;;4.43;;
6517;SDS011;3292;48.944;9.240;2023-09-18T04:20:09;6.03;;;4.67;;
6517;SDS011;3292;48.944;9.240;2023-09-18T04:22:41;6.73;;;5.00;;
6517;SDS011;3292;48.944;9.240;2023-09-18T04:25:09;5.97;;;4.90;;
6517;SDS011;3292;48.944;9.240;2023-09-18T04:27:36;6.53;;;5.10;;
6517;SDS011;3292;48.944;9.240;2023-09-18T04:30:03;6.37;;;4.60;;
6517;SDS011;3292;48.944;9.240;2023-09-18T04:32:33;9.43;;;5.13;;
6517;SDS011;3292;48.944;9.240;2023-09-18T04:35:00;7.67;;;4.87;;
6517;SDS011;3292;48.944;9.240;2023-09-18T04:37:27;8.33;;;5.00;;
6517;SDS011;3292;48.944;9.240;2023-09-18T04:39:54;7.47;;;5.20;;
6517;SDS011;3292;48.944;9.240;2023-09-18T04:42:21;7.90;;;4.50;;
6517;SDS011;3292;48.944;9.240;2023-09-18T04:44:48;6.70;;;4.67;;
6517;SDS011;3292;48.944;9.240;2023-09-18T04:47:14;8.30;;;4.70;;
6517;SDS011;3292;48.944;9.240;2023-09-18T04:49:42;6.30;;;4.40;;
6517;SDS011;3292;48.944;9.240;2023-09-18T04:52:10;7.53;;;4.70;;
6517;SDS011;3292;48.944;9.240;2023-09-18T04:54:37;7.33;;;4.73;;
6517;SDS011;3292;48.944;9.240;2023-09-18T04:57:03;7.83;;;5.33;;
6517;SDS011;3292;48.944;9.240;2023-09-18T04:59:30;7.30;;;5.00;;
6517;SDS011;3292;48.944;9.240;2023-09-18T05:01:57;6.27;;;4.60;;
6517;SDS011;3292;48.944;9.240;2023-09-18T05:04:24;6.07;;;4.60;;
6517;SDS011;3292;48.944;9.240;2023-09-18T05:06:52;11.87;;;5.27;;
6517;SDS011;3292;48.944;9.240;2023-09-18T05:09:19;7.93;;;5.50;;
6517;SDS011;3292;48.944;9.240;2023-09-18T05:11:45;11.40;;;5.00;;
6517;SDS011;3292;48.944;9.240;2023-09-18T05:14:14;9.73;;;5.90;;
6517;SDS011;3292;48.944;9.240;2023-09-18T05:16:41;10.20;;;6.10;;
6517;SDS011;3292;48.944;9.240;2023-09-18T05:19:08;8.23;;;5.10;;
6517;SDS011;3292;48.944;9.240;2023-09-18T05:21:34;7.87;;;4.83;;
6517;SDS011;3292;48.944;9.240;2023-09-18T05:24:03;8.03;;;5.10;;
6517;SDS011;3292;48.944;9.240;2023-09-18T05:26:30;7.43;;;4.87;;
6517;SDS011;3292;48.944;9.240;2023-09-18T05:28:57;7.63;;;5.10;;
6517;SDS011;3292;48.944;9.240;2023-09-18T05:31:24;8.40;;;4.83;;
6517;SDS011;3292;48.944;9.240;2023-09-18T05:33:51;5.93;;;4.33;;
6517;SDS011;3292;48.944;9.240;2023-09-18T05:36:18;7.70;;;4.90;;
6517;SDS011;3292;48.944;9.240;2023-09-18T05:38:45;8.23;;;4.43;;
6517;SDS011;3292;48.944;9.240;2023-09-18T05:41:13;11.30;;;4.50;;
6517;SDS011;3292;48.944;9.240;2023-09-18T05:43:42;14.17;;;4.50;;
6517;SDS011;3292;48.944;9.240;2023-09-18T05:46:28;13.37;;;4.90;;
6517;SDS011;3292;48.944;9.240;2023-09-18T05:48:55;9.07;;;4.83;;
6517;SDS011;3292;48.944;9.240;2023-09-18T05:51:23;9.07;;;4.13;;
6517;SDS011;3292;48.944;9.240;2023-09-18T05:53:50;9.67;;;4.30;;
6517;SDS011;3292;48.944;9.240;2023-09-18T05:56:18;12.17;;;5.00;;
6517;SDS011;3292;48.944;9.240;2023-09-18T05:58:45;10.00;;;4.53;;
6517;SDS011;3292;48.944;9.240;2023-09-18T06:01:11;10.10;;;4.30;;
6517;SDS011;3292;48.944;9.240;2023-09-18T06:03:38;9.50;;;4.03;;
6517;SDS011;3292;48.944;9.240;2023-09-18T06:06:05;11.17;;;4.50;;
6517;SDS011;3292;48.944;9.240;2023-09-18T06:08:32;7.60;;;4.50;;
6517;SDS011;3292;48.944;9.240;2023-09-18T06:10:59;9.67;;;4.00;;
6517;SDS011;3292;48.944;9.240;2023-09-18T06:13:27;10.83;;;4.50;;
6517;SDS011;3292;48.944;9.240;2023-09-18T06:15:54;9.80;;;4.23;;
6517;SDS011;3292;48.944;9.240;2023-09-18T06:18:22;9.73;;;4.47;;
6517;SDS011;3292;48.944;9.240;2023-09-18T06:20:49;11.57;;;4.47;;
6517;SDS011;3292;48.944;9.240;2023-09-18T06:23:16;11.10;;;4.50;;
6517;SDS011;3292;48.944;9.240;2023-09-18T06:25:43;10.27;;;4.20;;
6517;SDS011;3292;48.944;9.240;2023-09-18T06:28:10;9.57;;;4.40;;
6517;SDS011;3292;48.944;9.240;2023-09-18T06:30:38;9.80;;;4.53;;
6517;SDS011;3292;48.944;9.240;2023-09-18T06:33:06;7.00;;;3.77;;
6517;SDS011;3292;48.944;9.240;2023-09-18T06:35:33;8.73;;;4.03;;
6517;SDS011;3292;48.944;9.240;2023-09-18T06:37:59;6.03;;;4.00;;
6517;SDS011;3292;48.944;9.240;2023-09-18T06:40:26;7.13;;;4.20;;
6517;SDS011;3292;48.944;9.240;2023-09-18T06:42:57;6.97;;;4.20;;
6517;SDS011;3292;48.944;9.240;2023-09-18T06:45:25;8.60;;;4.30;;
6517;SDS011;3292;48.944;9.240;2023-09-18T06:47:53;9.20;;;4.63;;
6517;SDS011;3292;48.944;9.240;2023-09-18T06:50:20;8.43;;;4.23;;
6517;SDS011;3292;48.944;9.240;2023-09-18T06:52:47;8.27;;;4.30;;
6517;SDS011;3292;48.944;9.240;2023-09-18T06:55:14;8.67;;;3.90;;
6517;SDS011;3292;48.944;9.240;2023-09-18T06:57:41;7.83;;;3.87;;
6517;SDS011;3292;48.944;9.240;2023-09-18T07:00:09;6.50;;;4.07;;
6517;SDS011;3292;48.944;9.240;2023-09-18T07:02:36;6.87;;;4.27;;
6517;SDS011;3292;48.944;9.240;2023-09-18T07:05:05;10.43;;;4.30;;
6517;SDS011;3292;48.944;9.240;2023-09-18T07:07:32;8.50;;;4.30;;
6517;SDS011;3292;48.944;9.240;2023-09-18T07:09:58;6.50;;;4.00;;
6517;SDS011;3292;48.944;9.240;2023-09-18T07:12:25;6.37;;;4.20;;
6517;SDS011;3292;48.944;9.240;2023-09-18T07:14:53;11.07;;;4.13;;
6517;SDS011;3292;48.944;9.240;2023-09-18T07:17:20;7.83;;;3.77;;
6517;SDS011;3292;48.944;9.240;2023-09-18T07:19:46;8.97;;;3.93;;
6517;SDS011;3292;48.944;9.240;2023-09-18T07:22:15;6.10;;;4.17;;
6517;SDS011;3292;48.944;9.240;2023-09-18T07:24:42;8.83;;;3.80;;
6517;SDS011;3292;48.944;9.240;2023-09-18T07:27:10;7.83;;;3.63;;
6517;SDS011;3292;48.944;9.240;2023-09-18T07:29:37;10.10;;;3.67;;
6517;SDS011;3292;48.944;9.240;2023-09-18T07:32:04;4.73;;;3.63;;
6517;SDS011;3292;48.944;9.240;2023-09-18T07:34:31;6.97;;;3.77;;
6517;SDS011;3292;48.944;9.240;2023-09-18T07:36:58;6.17;;;4.10;;
6517;SDS011;3292;48.944;9.240;2023-09-18T07:39:26;5.40;;;3.30;;
6517;SDS011;3292;48.944;9.240;2023-09-18T07:41:53;8.40;;;3.87;;
6517;SDS011;3292;48.944;9.240;2023-09-18T07:44:21;6.73;;;3.37;;
6517;SDS011;3292;48.944;9.240;2023-09-18T07:46:48;7.13;;;3.33;;
6517;SDS011;3292;48.944;9.240;2023-09-18T07:49:15;8.10;;;3.90;;
6517;SDS011;3292;48.944;9.240;2023-09-18T07:51:43;11.03;;;3.80;;
6517;SDS011;3292;48.944;9.240;2023-09-18T07:54:13;6.70;;;3.83;;
6517;SDS011;3292;48.944;9.240;2023-09-18T07:56:42;10.60;;;3.63;;
6517;SDS011;3292;48.944;9.240;2023-09-18T07:59:09;7.07;;;3.53;;
6517;SDS011;3292;48.944;9.240;2023-09-18T08:01:36;5.70;;;3.73;;
6517;SDS011;3292;48.944;9.240;2023-09-18T08:04:03;7.53;;;4.00;;
6517;SDS011;3292;48.944;9.240;2023-09-18T08:06:30;6.93;;;3.83;;
6517;SDS011;3292;48.944;9.240;2023-09-18T08:08:57;6.97;;;3.43;;
6517;SDS011;3292;48.944;9.240;2023-09-18T08:11:24;5.33;;;3.60;;
6517;SDS011;3292;48.944;9.240;2023-09-18T08:13:52;9.70;;;3.30;;
6517;SDS011;3292;48.944;9.240;2023-09-18T08:16:19;7.17;;;3.50;;
6517;SDS011;3292;48.944;9.240;2023-09-18T08:18:46;7.03;;;3.53;;
6517;SDS011;3292;48.944;9.240;2023-09-18T08:21:13;6.57;;;3.97;;
6517;SDS011;3292;48.944;9.240;2023-09-18T08:23:39;8.17;;;3.87;;
6517;SDS011;3292;48.944;9.240;2023-09-18T08:26:07;6.00;;;2.87;;
6517;SDS011;3292;48.944;9.240;2023-09-18T08:28:34;3.67;;;2.47;;
6517;SDS011;3292;48.944;9.240;2023-09-18T08:31:05;4.97;;;2.43;;
6517;SDS011;3292;48.944;9.240;2023-09-18T08:33:32;4.70;;;2.50;;
6517;SDS011;3292;48.944;9.240;2023-09-18T08:35:59;5.83;;;2.43;;
6517;SDS011;3292;48.944;9.240;2023-09-18T08:38:26;9.03;;;2.77;;
6517;SDS011;3292;48.944;9.240;2023-09-18T08:40:53;6.33;;;3.40;;
6517;SDS011;3292;48.944;9.240;2023-09-18T08:43:23;7.50;;;3.27;;
6517;SDS011;3292;48.944;9.240;2023-09-18T08:45:52;7.90;;;3.50;;
6517;SDS011;3292;48.944;9.240;2023-09-18T08:48:21;9.97;;;3.60;;
6517;SDS011;3292;48.944;9.240;2023-09-18T08:50:49;6.80;;;3.73;;
6517;SDS011;3292;48.944;9.240;2023-09-18T08:53:17;5.20;;;3.10;;
6517;SDS011;3292;48.944;9.240;2023-09-18T08:55:44;4.80;;;2.50;;
6517;SDS011;3292;48.944;9.240;2023-09-18T08:58:11;2.93;;;2.07;;
6517;SDS011;3292;48.944;9.240;2023-09-18T09:00:39;4.37;;;1.80;;
6517;SDS011;3292;48.944;9.240;2023-09-18T09:03:06;3.13;;;1.80;;
6517;SDS011;3292;48.944;9.240;2023-09-18T09:05:36;4.97;;;2.00;;
6517;SDS011;3292;48.944;9.240;2023-09-18T09:08:03;3.83;;;1.67;;
6517;SDS011;3292;48.944;9.240;2023-09-18T09:10:30;1.93;;;1.73;;
6517;SDS011;3292;48.944;9.240;2023-09-18T09:12:57;2.77;;;1.70;;
6517;SDS011;3292;48.944;9.240;2023-09-18T09:15:26;3.00;;;1.90;;
6517;SDS011;3292;48.944;9.240;2023-09-18T09:18:02;5.50;;;1.83;;
6517;SDS011;3292;48.944;9.240;2023-09-18T09:20:30;5.27;;;1.87;;
6517;SDS011;3292;48.944;9.240;2023-09-18T09:23:02;2.53;;;1.60;;
6517;SDS011;3292;48.944;9.240;2023-09-18T09:25:30;6.80;;;1.90;;
6517;SDS011;3292;48.944;9.240;2023-09-18T09:27:58;6.20;;;1.97;;
6517;SDS011;3292;48.944;9.240;2023-09-18T09:30:26;5.10;;;1.80;;
6517;SDS011;3292;48.944;9.240;2023-09-18T09:32:54;3.57;;;1.90;;
6517;SDS011;3292;48.944;9.240;2023-09-18T09:35:23;2.57;;;1.80;;
6517;SDS011;3292;48.944;9.240;2023-09-18T09:37:52;3.70;;;1.87;;
6517;SDS011;3292;48.944;9.240;2023-09-18T09:40:22;4.03;;;1.90;;
6517;SDS011;3292;48.944;9.240;2023-09-18T09:42:50;4.30;;;1.93;;
6517;SDS011;3292;48.944;9.240;2023-09-18T09:45:19;5.40;;;1.87;;
6517;SDS011;3292;48.944;9.240;2023-09-18T09:47:46;2.63;;;1.90;;
6517;SDS011;3292;48.944;9.240;2023-09-18T09:50:14;4.93;;;2.00;;
6517;SDS011;3292;48.944;9.240;2023-09-18T09:52:44;5.67;;;2.20;;
6517;SDS011;3292;48.944;9.240;2023-09-18T09:55:21;4.17;;;1.93;;
6517;SDS011;3292;48.944;9.240;2023-09-18T09:57:51;3.47;;;2.23;;
6517;SDS011;3292;48.944;9.240;2023-09-18T10:00:19;4.43;;;2.00;;
6517;SDS011;3292;48.944;9.240;2023-09-18T10:02:58;3.60;;;2.30;;
6517;SDS011;3292;48.944;9.240;2023-09-18T10:05:28;2.73;;;1.60;;
6517;SDS011;3292;48.944;9.240;2023-09-18T10:07:59;3.20;;;2.07;;
6517;SDS011;3292;48.944;9.240;2023-09-18T10:10:30;5.93;;;2.10;;
6517;SDS011;3292;48.944;9.240;2023-09-18T10:13:09;4.03;;;1.80;;
6517;SDS011;3292;48.944;9.240;2023-09-18T10:15:38;3.10;;;2.10;;
6517;SDS011;3292;48.944;9.240;2023-09-18T10:18:10;4.47;;;1.90;;
6517;SDS011;3292;48.944;9.240;2023-09-18T10:20:56;5.20;;;2.10;;
6517;SDS011;3292;48.944;9.240;2023-09-18T10:23:34;2.10;;;1.90;;
6517;SDS011;3292;48.944;9.240;2023-09-18T10:26:13;3.13;;;1.83;;
6517;SDS011;3292;48.944;9.240;2023-09-18T10:28:49;2.37;;;1.60;;
6517;SDS011;3292;48.944;9.240;2023-09-18T10:31:18;3.03;;;2.07;;
6517;SDS011;3292;48.944;9.240;2023-09-18T10:33:46;3.57;;;1.97;;
6517;SDS011;3292;48.944;9.240;2023-09-18T10:36:15;3.07;;;2.10;;
6517;SDS011;3292;48.944;9.240;2023-09-18T10:38:43;2.83;;;2.10;;
6517;SDS011;3292;48.944;9.240;2023-09-18T10:41:15;2.70;;;2.00;;
6517;SDS011;3292;48.944;9.240;2023-09-18T10:43:43;4.10;;;2.20;;
6517;SDS011;3292;48.944;9.240;2023-09-18T10:46:11;3.60;;;1.90;;
6517;SDS011;3292;48.944;9.240;2023-09-18T10:48:39;3.70;;;2.20;;
6517;SDS011;3292;48.944;9.240;2023-09-18T10:51:06;2.57;;;2.20;;
6517;SDS011;3292;48.944;9.240;2023-09-18T10:53:33;4.27;;;2.10;;
6517;SDS011;3292;48.944;9.240;2023-09-18T10:56:01;4.87;;;2.00;;
6517;SDS011;3292;48.944;9.240;2023-09-18T10:58:30;3.90;;;2.20;;
6517;SDS011;3292;48.944;9.240;2023-09-18T11:01:00;3.00;;;1.93;;
6517;SDS011;3292;48.944;9.240;2023-09-18T11:03:28;2.80;;;2.10;;
6517;SDS011;3292;48.944;9.240;2023-09-18T11:06:05;2.60;;;2.10;;
6517;SDS011;3292;48.944;9.240;2023-09-18T11:08:34;5.30;;;2.43;;
6517;SDS011;3292;48.944;9.240;2023-09-18T11:11:09;2.57;;;1.77;;
6517;SDS011;3292;48.944;9.240;2023-09-18T11:13:41;3.93;;;2.17;;
6517;SDS011;3292;48.944;9.240;2023-09-18T11:16:18;4.70;;;2.00;;
6517;SDS011;3292;48.944;9.240;2023-09-18T11:19:08;5.90;;;2.40;;
6517;SDS011;3292;48.944;9.240;2023-09-18T11:21:36;5.40;;;2.20;;
6517;SDS011;3292;48.944;9.240;2023-09-18T11:24:04;3.70;;;1.83;;
6517;SDS011;3292;48.944;9.240;2023-09-18T11:26:36;3.40;;;2.20;;
6517;SDS011;3292;48.944;9.240;2023-09-18T11:29:08;3.07;;;1.80;;
6517;SDS011;3292;48.944;9.240;2023-09-18T11:31:42;4.37;;;2.10;;
6517;SDS011;3292;48.944;9.240;2023-09-18T11:34:13;4.17;;;2.30;;
6517;SDS011;3292;48.944;9.240;2023-09-18T11:36:41;3.13;;;2.27;;
6517;SDS011;3292;48.944;9.240;2023-09-18T11:39:08;2.30;;;1.80;;
6517;SDS011;3292;48.944;9.240;2023-09-18T11:41:36;3.60;;;1.97;;
6517;SDS011;3292;48.944;9.240;2023-09-18T11:47:12;3.20;;;1.87;;
6517;SDS011;3292;48.944;9.240;2023-09-18T11:49:47;4.13;;;2.10;;
6517;SDS011;3292;48.944;9.240;2023-09-18T11:52:19;3.73;;;1.90;;
6517;SDS011;3292;48.944;9.240;2023-09-18T11:54:47;4.40;;;1.90;;
6517;SDS011;3292;48.944;9.240;2023-09-18T11:57:15;2.63;;;1.93;;
6517;SDS011;3292;48.944;9.240;2023-09-18T11:59:44;4.87;;;2.03;;
6517;SDS011;3292;48.944;9.240;2023-09-18T12:02:12;6.93;;;1.97;;
6517;SDS011;3292;48.944;9.240;2023-09-18T12:04:45;4.53;;;1.80;;
6517;SDS011;3292;48.944;9.240;2023-09-18T12:07:12;3.23;;;1.80;;
6517;SDS011;3292;48.944;9.240;2023-09-18T12:09:40;3.80;;;1.80;;
6517;SDS011;3292;48.944;9.240;2023-09-18T12:12:07;3.13;;;1.80;;
6517;SDS011;3292;48.944;9.240;2023-09-18T12:14:34;3.20;;;1.80;;
6517;SDS011;3292;48.944;9.240;2023-09-18T12:17:03;3.93;;;2.00;;
6517;SDS011;3292;48.944;9.240;2023-09-18T12:19:31;2.87;;;1.70;;
6517;SDS011;3292;48.944;9.240;2023-09-18T12:21:59;2.60;;;1.87;;
6517;SDS011;3292;48.944;9.240;2023-09-18T12:24:26;3.43;;;1.97;;
6517;SDS011;3292;48.944;9.240;2023-09-18T12:26:54;3.30;;;1.80;;
6517;SDS011;3292;48.944;9.240;2023-09-18T12:29:21;2.23;;;1.77;;
6517;SDS011;3292;48.944;9.240;2023-09-18T12:31:48;3.00;;;2.30;;
6517;SDS011;3292;48.944;9.240;2023-09-18T12:34:17;3.13;;;2.10;;
6517;SDS011;3292;48.944;9.240;2023-09-18T12:36:46;2.93;;;1.80;;
6517;SDS011;3292;48.944;9.240;2023-09-18T12:39:13;2.50;;;1.67;;
6517;SDS011;3292;48.944;9.240;2023-09-18T12:41:41;3.90;;;1.97;;
6517;SDS011;3292;48.944;9.240;2023-09-18T12:44:10;2.50;;;1.83;;
6517;SDS011;3292;48.944;9.240;2023-09-18T12:46:37;2.50;;;1.83;;
6517;SDS011;3292;48.944;9.240;2023-09-18T12:49:17;4.23;;;2.00;;
6517;SDS011;3292;48.944;9.240;2023-09-18T12:51:44;3.40;;;1.57;;
6517;SDS011;3292;48.944;9.240;2023-09-18T12:54:21;3.00;;;1.80;;
6517;SDS011;3292;48.944;9.240;2023-09-18T12:57:02;2.20;;;1.63;;
6517;SDS011;3292;48.944;9.240;2023-09-18T12:59:31;4.30;;;1.80;;
6517;SDS011;3292;48.944;9.240;2023-09-18T13:01:58;4.97;;;2.00;;
6517;SDS011;3292;48.944;9.240;2023-09-18T13:04:26;3.03;;;1.83;;
6517;SDS011;3292;48.944;9.240;2023-09-18T13:07:03;2.27;;;1.70;;
6517;SDS011;3292;48.944;9.240;2023-09-18T13:09:32;4.33;;;1.83;;
6517;SDS011;3292;48.944;9.240;2023-09-18T13:11:59;1.80;;;1.40;;
6517;SDS011;3292;48.944;9.240;2023-09-18T13:14:25;2.67;;;1.63;;
6517;SDS011;3292;48.944;9.240;2023-09-18T13:16:52;3.17;;;1.90;;
6517;SDS011;3292;48.944;9.240;2023-09-18T13:19:27;2.27;;;1.77;;
6517;SDS011;3292;48.944;9.240;2023-09-18T13:21:55;3.20;;;1.70;;
6517;SDS011;3292;48.944;9.240;2023-09-18T13:24:25;2.40;;;1.73;;
6517;SDS011;3292;48.944;9.240;2023-09-18T13:26:53;3.67;;;2.23;;
6517;SDS011;3292;48.944;9.240;2023-09-18T13:29:20;2.50;;;1.83;;
6517;SDS011;3292;48.944;9.240;2023-09-18T13:31:47;2.83;;;1.80;;
6517;SDS011;3292;48.944;9.240;2023-09-18T13:34:14;2.87;;;1.70;;
6517;SDS011;3292;48.944;9.240;2023-09-18T13:36:44;5.23;;;1.97;;
6517;SDS011;3292;48.944;9.240;2023-09-18T13:39:11;1.93;;;1.70;;
6517;SDS011;3292;48.944;9.240;2023-09-18T13:41:38;2.43;;;1.60;;
6517;SDS011;3292;48.944;9.240;2023-09-18T13:44:06;2.20;;;1.80;;
6517;SDS011;3292;48.944;9.240;2023-09-18T13:46:33;2.90;;;1.70;;
6517;SDS011;3292;48.944;9.240;2023-09-18T13:49:01;2.73;;;1.80;;
6517;SDS011;3292;48.944;9.240;2023-09-18T13:51:29;3.17;;;1.57;;
6517;SDS011;3292;48.944;9.240;2023-09-18T13:53:58;3.10;;;1.77;;
6517;SDS011;3292;48.944;9.240;2023-09-18T13:56:25;2.00;;;1.50;;
6517;SDS011;3292;48.944;9.240;2023-09-18T13:58:54;3.43;;;1.77;;
6517;SDS011;3292;48.944;9.240;2023-09-18T14:01:21;2.43;;;1.50;;
6517;SDS011;3292;48.944;9.240;2023-09-18T14:03:49;2.10;;;1.57;;
6517;SDS011;3292;48.944;9.240;2023-09-18T14:06:16;1.83;;;1.63;;
6517;SDS011;3292;48.944;9.240;2023-09-18T14:08:43;2.87;;;1.70;;
6517;SDS011;3292;48.944;9.240;2023-09-18T14:11:12;3.77;;;1.70;;
6517;SDS011;3292;48.944;9.240;2023-09-18T14:13:38;2.70;;;1.70;;
6517;SDS011;3292;48.944;9.240;2023-09-18T14:16:06;3.17;;;1.73;;
6517;SDS011;3292;48.944;9.240;2023-09-18T14:18:34;3.23;;;1.50;;
6517;SDS011;3292;48.944;9.240;2023-09-18T14:21:01;3.53;;;1.90;;
6517;SDS011;3292;48.944;9.240;2023-09-18T14:23:28;3.07;;;1.77;;
6517;SDS011;3292;48.944;9.240;2023-09-18T14:25:55;5.83;;;1.77;;
6517;SDS011;3292;48.944;9.240;2023-09-18T14:28:23;4.00;;;1.50;;
6517;SDS011;3292;48.944;9.240;2023-09-18T14:30:50;1.53;;;1.43;;
6517;SDS011;3292;48.944;9.240;2023-09-18T14:33:17;3.00;;;1.73;;
6517;SDS011;3292;48.944;9.240;2023-09-18T14:35:44;2.57;;;1.40;;
6517;SDS011;3292;48.944;9.240;2023-09-18T14:38:11;2.43;;;1.67;;
6517;SDS011;3292;48.944;9.240;2023-09-18T14:40:40;3.07;;;1.50;;
6517;SDS011;3292;48.944;9.240;2023-09-18T14:43:07;3.03;;;1.43;;
6517;SDS011;3292;48.944;9.240;2023-09-18T14:45:35;2.60;;;1.80;;
6517;SDS011;3292;48.944;9.240;2023-09-18T14:48:03;2.20;;;1.70;;
6517;SDS011;3292;48.944;9.240;2023-09-18T14:50:30;2.90;;;1.60;;
6517;SDS011;3292;48.944;9.240;2023-09-18T14:52:57;3.20;;;1.50;;
6517;SDS011;3292;48.944;9.240;2023-09-18T14:55:24;1.97;;;1.70;;
6517;SDS011;3292;48.944;9.240;2023-09-18T14:57:51;1.90;;;1.60;;
6517;SDS011;3292;48.944;9.240;2023-09-18T15:00:18;2.58;;;1.70;;
6517;SDS011;3292;48.944;9.240;2023-09-18T15:02:47;1.80;;;1.35;;
6517;SDS011;3292;48.944;9.240;2023-09-18T15:05:13;1.87;;;1.30;;
6517;SDS011;3292;48.944;9.240;2023-09-18T15:07:42;2.65;;;1.60;;
6517;SDS011;3292;48.944;9.240;2023-09-18T15:10:09;2.85;;;1.60;;
6517;SDS011;3292;48.944;9.240;2023-09-18T15:12:36;1.95;;;1.70;;
6517;SDS011;3292;48.944;9.240;2023-09-18T15:15:06;1.83;;;1.30;;
6517;SDS011;3292;48.944;9.240;2023-09-18T15:17:33;3.50;;;1.70;;
6517;SDS011;3292;48.944;9.240;2023-09-18T15:20:01;3.38;;;1.60;;
6517;SDS011;3292;48.944;9.240;2023-09-18T15:22:28;2.30;;;1.40;;
6517;SDS011;3292;48.944;9.240;2023-09-18T15:24:55;4.70;;;1.80;;